Time;durP1;ratioP1;P1;durP2;ratioP2;P2;SDS_P1;SDS_P2;PMS_P1;PMS_P2;Temp;Humidity;BMP_temperature;BMP_pressure;BME280_temperature;BME280_humidity;BME280_pressure;Samples;Min_cycle;Max_cycle;Signal;HPM_P1;HPM_P2
2021/03/03 00:01:59;;;;;;;30.97;22.80;;;;;;;;;;5050873;28;20255;-74
2021/03/03 00:04:43;;;;;;;30.60;22.50;;;;;;;;;;5052586;28;20277;-74
2021/03/03 00:07:28;;;;;;;29.63;22.13;;;;;;;;;;5050385;28;20230;-74
2021/03/03 00:10:14;;;;;;;31.70;22.53;;;;;;;;;;5068747;28;20213;-74
2021/03/03 00:12:58;;;;;;;29.10;21.47;;;;;;;;;;5069214;28;20588;-74
2021/03/03 00:15:43;;;;;;;28.03;21.53;;;;;;;;;;5051256;28;20685;-74
2021/03/03 00:18:27;;;;;;;28.20;20.97;;;;;;;;;;5059328;28;20263;-74
2021/03/03 00:21:11;;;;;;;29.83;22.47;;;;;;;;;;5074617;28;20247;-74
2021/03/03 00:23:56;;;;;;;30.67;23.27;;;;;;;;;;5072166;28;20224;-74
2021/03/03 00:26:41;;;;;;;32.97;21.73;;;;;;;;;;5073891;28;20320;-75
2021/03/03 00:29:26;;;;;;;35.83;23.87;;;;;;;;;;5071672;28;20205;-74
2021/03/03 00:32:10;;;;;;;32.20;23.23;;;;;;;;;;5061714;28;20248;-74
2021/03/03 00:34:55;;;;;;;33.50;22.13;;;;;;;;;;5054118;28;20206;-74
2021/03/03 00:37:39;;;;;;;32.70;22.27;;;;;;;;;;5054121;28;20675;-74
2021/03/03 00:40:24;;;;;;;32.27;22.97;;;;;;;;;;5054266;28;20201;-75
2021/03/03 00:43:09;;;;;;;28.73;20.83;;;;;;;;;;5054234;28;20225;-74
2021/03/03 00:45:53;;;;;;;31.67;21.97;;;;;;;;;;5053587;28;20195;-74
2021/03/03 00:48:38;;;;;;;28.27;21.63;;;;;;;;;;5064280;28;20212;-74
2021/03/03 00:51:22;;;;;;;32.80;26.67;;;;;;;;;;5072709;28;20815;-74
2021/03/03 00:54:07;;;;;;;29.53;22.97;;;;;;;;;;5058071;28;20271;-74
2021/03/03 00:56:51;;;;;;;29.77;22.13;;;;;;;;;;5053416;28;20206;-74
2021/03/03 00:59:37;;;;;;;33.30;23.43;;;;;;;;;;5053822;28;20233;-74
2021/03/03 01:02:21;;;;;;;30.13;22.20;;;;;;;;;;5055636;28;20205;-74
2021/03/03 01:05:07;;;;;;;31.10;22.27;;;;;;;;;;5073699;28;20204;-74
2021/03/03 01:07:51;;;;;;;28.47;21.33;;;;;;;;;;5065932;28;20233;-74
2021/03/03 01:10:36;;;;;;;31.43;22.47;;;;;;;;;;5053720;28;20243;-75
2021/03/03 01:13:20;;;;;;;34.80;24.37;;;;;;;;;;5053253;28;20280;-74
2021/03/03 01:16:06;;;;;;;30.00;23.03;;;;;;;;;;5065365;28;20274;-74
2021/03/03 01:18:50;;;;;;;38.23;23.57;;;;;;;;;;5053516;28;20704;-74
2021/03/03 01:21:35;;;;;;;30.23;21.67;;;;;;;;;;5053368;28;20213;-74
2021/03/03 01:24:19;;;;;;;28.17;21.37;;;;;;;;;;5053263;28;20244;-74
2021/03/03 01:27:04;;;;;;;33.70;22.27;;;;;;;;;;5056926;28;20205;-74
2021/03/03 01:29:48;;;;;;;28.73;21.53;;;;;;;;;;5053260;28;20193;-74
2021/03/03 01:32:34;;;;;;;31.97;23.13;;;;;;;;;;5052448;28;20237;-74
2021/03/03 01:35:18;;;;;;;31.55;23.05;;;;;;;;;;5055883;28;20416;-74
2021/03/03 01:38:03;;;;;;;30.50;23.60;;;;;;;;;;5052653;28;20205;-75
2021/03/03 01:40:48;;;;;;;30.57;24.70;;;;;;;;;;5055819;28;20304;-74
2021/03/03 01:43:32;;;;;;;32.83;23.20;;;;;;;;;;5053986;28;20261;-74
2021/03/03 01:46:17;;;;;;;30.37;22.47;;;;;;;;;;5059998;28;20213;-74
2021/03/03 01:49:02;;;;;;;28.60;21.80;;;;;;;;;;5054263;28;20213;-74
2021/03/03 01:51:47;;;;;;;28.23;21.10;;;;;;;;;;5073006;28;20597;-74
2021/03/03 01:54:31;;;;;;;25.13;20.80;;;;;;;;;;5072860;28;20555;-75
2021/03/03 01:57:16;;;;;;;25.53;20.60;;;;;;;;;;5062296;28;20206;-74
2021/03/03 02:00:01;;;;;;;30.97;22.60;;;;;;;;;;5052584;28;20256;-75
2021/03/03 02:02:45;;;;;;;28.73;21.73;;;;;;;;;;5055236;28;20712;-74
2021/03/03 02:05:31;;;;;;;30.10;21.90;;;;;;;;;;5052742;28;20202;-74
2021/03/03 02:08:17;;;;;;;28.37;22.57;;;;;;;;;;5052578;28;20241;-74
2021/03/03 02:11:02;;;;;;;29.80;21.87;;;;;;;;;;5064151;28;20209;-74
2021/03/03 02:13:49;;;;;;;27.80;21.63;;;;;;;;;;5052607;28;20221;-74
2021/03/03 02:16:35;;;;;;;29.37;22.50;;;;;;;;;;5052326;28;20723;-74
2021/03/03 02:19:21;;;;;;;33.30;23.33;;;;;;;;;;5052074;28;20229;-75
2021/03/03 02:22:09;;;;;;;29.25;24.13;;;;;;;;;;5051388;28;20425;-74
2021/03/03 02:24:56;;;;;;;30.40;23.40;;;;;;;;;;5052204;28;20252;-75
2021/03/03 02:27:42;;;;;;;24.30;20.80;;;;;;;;;;5051869;28;20227;-74
2021/03/03 02:30:27;;;;;;;26.70;21.17;;;;;;;;;;5051889;28;20244;-74
2021/03/03 02:33:13;;;;;;;25.67;20.40;;;;;;;;;;5071181;28;20278;-74
2021/03/03 02:35:58;;;;;;;27.20;21.00;;;;;;;;;;5067482;28;20196;-75
2021/03/03 02:38:42;;;;;;;25.43;20.00;;;;;;;;;;5051676;28;20315;-74
2021/03/03 02:41:28;;;;;;;25.97;20.40;;;;;;;;;;5059887;28;20209;-75
2021/03/03 02:44:13;;;;;;;26.73;20.60;;;;;;;;;;5071503;28;20347;-75
2021/03/03 02:46:58;;;;;;;25.87;20.77;;;;;;;;;;5069601;28;20200;-75
2021/03/03 02:49:42;;;;;;;23.40;20.13;;;;;;;;;;5071845;28;20205;-75
2021/03/03 02:52:27;;;;;;;27.60;20.47;;;;;;;;;;5054905;28;20229;-74
2021/03/03 02:55:12;;;;;;;27.97;21.17;;;;;;;;;;5068653;28;20469;-75
2021/03/03 02:57:58;;;;;;;28.50;20.77;;;;;;;;;;5071155;28;20679;-75
2021/03/03 03:00:44;;;;;;;26.97;21.03;;;;;;;;;;5067740;28;20213;-75
2021/03/03 03:03:32;;;;;;;27.00;20.50;;;;;;;;;;5051618;28;20220;-75
2021/03/03 03:06:18;;;;;;;23.63;18.67;;;;;;;;;;5059393;28;20208;-75
2021/03/03 03:09:04;;;;;;;28.98;24.95;;;;;;;;;;5070560;28;20534;-75
2021/03/03 03:11:51;;;;;;;30.83;22.83;;;;;;;;;;5056933;28;20221;-75
2021/03/03 03:14:36;;;;;;;35.73;24.13;;;;;;;;;;5051823;28;20747;-74
2021/03/03 03:17:22;;;;;;;31.93;23.63;;;;;;;;;;5070252;28;20251;-75
2021/03/03 03:20:09;;;;;;;32.43;24.90;;;;;;;;;;5068353;28;20264;-75
2021/03/03 03:22:53;;;;;;;34.00;24.73;;;;;;;;;;5051356;28;20241;-75
2021/03/03 03:25:39;;;;;;;33.13;25.50;;;;;;;;;;5058029;28;20200;-75
2021/03/03 03:28:23;;;;;;;31.77;23.57;;;;;;;;;;5071030;28;20682;-75
2021/03/03 03:31:09;;;;;;;33.97;23.73;;;;;;;;;;5059055;28;20201;-75
2021/03/03 03:33:55;;;;;;;35.83;25.37;;;;;;;;;;5050963;28;20297;-75
2021/03/03 03:36:40;;;;;;;35.93;26.43;;;;;;;;;;5067354;28;20326;-74
2021/03/03 03:39:25;;;;;;;37.20;27.10;;;;;;;;;;5070652;28;20324;-75
2021/03/03 03:42:09;;;;;;;31.53;25.33;;;;;;;;;;5070983;28;20300;-75
2021/03/03 03:44:55;;;;;;;31.30;23.97;;;;;;;;;;5070415;28;20704;-75
2021/03/03 03:47:41;;;;;;;31.93;23.73;;;;;;;;;;5070551;28;20242;-75
2021/03/03 03:50:27;;;;;;;30.47;22.67;;;;;;;;;;5069499;28;20208;-75
2021/03/03 03:53:11;;;;;;;30.00;23.27;;;;;;;;;;5064580;28;20225;-74
2021/03/03 03:55:55;;;;;;;34.60;28.10;;;;;;;;;;5049608;28;20425;-75
2021/03/03 03:58:40;;;;;;;30.77;24.27;;;;;;;;;;5050657;28;20225;-75
2021/03/03 04:01:25;;;;;;;28.70;23.00;;;;;;;;;;5069862;28;20201;-75
2021/03/03 04:04:09;;;;;;;34.87;25.03;;;;;;;;;;5069178;28;20224;-75
2021/03/03 04:06:54;;;;;;;28.57;21.93;;;;;;;;;;5050375;28;20300;-74
2021/03/03 04:09:39;;;;;;;27.60;22.43;;;;;;;;;;5051007;28;20208;-75
2021/03/03 04:12:23;;;;;;;34.10;23.73;;;;;;;;;;5050695;28;20583;-74
2021/03/03 04:15:09;;;;;;;29.67;24.20;;;;;;;;;;5061754;28;20738;-75
2021/03/03 04:17:53;;;;;;;31.73;23.03;;;;;;;;;;5070306;28;20332;-75
2021/03/03 04:20:41;;;;;;;29.43;23.57;;;;;;;;;;5055500;28;20208;-75
2021/03/03 04:23:26;;;;;;;29.03;22.57;;;;;;;;;;5057733;28;20223;-75
2021/03/03 04:26:10;;;;;;;28.60;21.67;;;;;;;;;;5050556;28;20740;-75
2021/03/03 04:28:55;;;;;;;29.07;21.57;;;;;;;;;;5050439;28;20289;-75
2021/03/03 04:31:39;;;;;;;28.03;21.50;;;;;;;;;;5050614;28;20232;-75
2021/03/03 04:34:24;;;;;;;26.80;21.30;;;;;;;;;;5050814;28;20193;-75
2021/03/03 04:37:08;;;;;;;29.67;21.87;;;;;;;;;;5049783;28;20201;-75
2021/03/03 04:39:54;;;;;;;29.50;22.40;;;;;;;;;;5050408;28;20229;-74
2021/03/03 04:42:38;;;;;;;29.10;25.85;;;;;;;;;;5049089;28;20467;-74
2021/03/03 04:45:23;;;;;;;29.97;22.63;;;;;;;;;;5050645;28;20684;-75
2021/03/03 04:48:08;;;;;;;33.27;24.47;;;;;;;;;;5050060;28;20340;-75
2021/03/03 04:50:53;;;;;;;29.43;20.93;;;;;;;;;;5049992;28;20213;-75
2021/03/03 04:53:37;;;;;;;29.70;21.30;;;;;;;;;;5050432;28;20221;-75
2021/03/03 04:56:23;;;;;;;27.97;21.50;;;;;;;;;;5049999;28;20232;-76
2021/03/03 04:59:07;;;;;;;34.10;24.27;;;;;;;;;;5051562;28;20224;-76
2021/03/03 05:01:52;;;;;;;37.67;23.93;;;;;;;;;;5069538;28;20205;-75
2021/03/03 05:04:36;;;;;;;29.70;23.13;;;;;;;;;;5064295;28;20732;-75
2021/03/03 05:07:21;;;;;;;35.50;25.43;;;;;;;;;;5053189;28;20212;-76
2021/03/03 05:10:06;;;;;;;33.87;25.57;;;;;;;;;;5054612;28;20719;-76
2021/03/03 05:12:52;;;;;;;32.60;24.80;;;;;;;;;;5053505;28;20633;-75
2021/03/03 05:15:36;;;;;;;33.93;23.13;;;;;;;;;;5069746;28;20575;-76
2021/03/03 05:18:21;;;;;;;30.00;23.53;;;;;;;;;;5073365;28;20219;-76
2021/03/03 05:21:05;;;;;;;34.83;26.27;;;;;;;;;;5053179;28;20248;-75
2021/03/03 05:23:50;;;;;;;35.37;26.10;;;;;;;;;;5053190;28;20349;-76
2021/03/03 05:26:34;;;;;;;38.15;31.35;;;;;;;;;;5052060;28;20444;-76
2021/03/03 05:29:20;;;;;;;33.13;24.93;;;;;;;;;;5053170;28;20196;-75
2021/03/03 05:32:04;;;;;;;33.03;24.67;;;;;;;;;;5053327;28;20225;-75
2021/03/03 05:34:48;;;;;;;36.87;24.27;;;;;;;;;;5064071;28;20238;-76
2021/03/03 05:37:33;;;;;;;32.03;24.37;;;;;;;;;;5072782;28;20691;-76
2021/03/03 05:40:18;;;;;;;34.47;25.73;;;;;;;;;;5056776;28;20253;-75
2021/03/03 05:43:02;;;;;;;32.73;24.60;;;;;;;;;;5065832;28;20363;-76
2021/03/03 05:45:48;;;;;;;34.10;26.13;;;;;;;;;;5073157;28;20247;-75
2021/03/03 05:48:34;;;;;;;34.23;24.67;;;;;;;;;;5069890;28;20288;-75
2021/03/03 05:51:22;;;;;;;39.47;27.73;;;;;;;;;;5064291;28;20211;-76
2021/03/03 05:54:07;;;;;;;33.70;24.27;;;;;;;;;;5063628;28;20209;-76
2021/03/03 05:56:51;;;;;;;31.57;24.00;;;;;;;;;;5061059;28;20293;-76
2021/03/03 05:59:36;;;;;;;32.83;24.60;;;;;;;;;;5052846;28;20233;-76
2021/03/03 06:02:22;;;;;;;29.23;22.63;;;;;;;;;;5061471;28;20228;-75
2021/03/03 06:05:09;;;;;;;30.23;22.77;;;;;;;;;;5072407;28;20197;-76
2021/03/03 06:07:54;;;;;;;33.63;25.03;;;;;;;;;;5072302;28;20228;-76
2021/03/03 06:10:39;;;;;;;31.87;23.47;;;;;;;;;;5072527;28;20200;-76
2021/03/03 06:13:24;;;;;;;37.67;29.58;;;;;;;;;;5058458;28;20552;-76
2021/03/03 06:16:09;;;;;;;33.70;25.83;;;;;;;;;;5063112;28;20252;-76
2021/03/03 06:18:55;;;;;;;34.93;25.73;;;;;;;;;;5052234;28;20260;-76
2021/03/03 06:21:40;;;;;;;34.70;26.17;;;;;;;;;;5070189;28;20204;-75
2021/03/03 06:24:32;;;;;;;38.60;27.77;;;;;;;;;;5063375;28;20201;-76
2021/03/03 06:27:18;;;;;;;38.33;27.27;;;;;;;;;;5051762;28;20225;-76
2021/03/03 06:30:05;;;;;;;34.37;25.40;;;;;;;;;;5071307;28;20233;-75
2021/03/03 06:32:53;;;;;;;33.93;25.97;;;;;;;;;;5071924;28;20769;-75
2021/03/03 06:35:40;;;;;;;39.70;26.63;;;;;;;;;;5071579;28;20205;-75
2021/03/03 06:38:29;;;;;;;34.37;26.07;;;;;;;;;;5072143;28;20201;-75
2021/03/03 06:41:13;;;;;;;35.03;24.17;;;;;;;;;;5060795;28;20628;-75
2021/03/03 06:43:58;;;;;;;35.23;25.77;;;;;;;;;;5052042;28;20292;-76
2021/03/03 06:46:43;;;;;;;33.27;24.27;;;;;;;;;;5051732;28;20205;-75
2021/03/03 06:49:28;;;;;;;35.37;26.93;;;;;;;;;;5052036;28;20324;-75
2021/03/03 06:52:13;;;;;;;31.97;24.20;;;;;;;;;;5051883;28;20224;-75
2021/03/03 06:55:00;;;;;;;33.70;25.13;;;;;;;;;;5051850;28;20744;-76
2021/03/03 06:57:45;;;;;;;33.53;25.40;;;;;;;;;;5051287;28;20252;-75
2021/03/03 07:00:42;;;;;;;38.60;31.10;;;;;;;;;;5050749;28;20456;-75
2021/03/03 07:03:28;;;;;;;35.03;27.87;;;;;;;;;;5051539;28;20287;-75
2021/03/03 07:06:31;;;;;;;34.57;27.10;;;;;;;;;;5051097;28;20248;-75
2021/03/03 07:09:16;;;;;;;33.50;26.27;;;;;;;;;;5053310;28;20213;-75
2021/03/03 07:12:01;;;;;;;36.93;26.90;;;;;;;;;;5058761;28;20229;-75
2021/03/03 07:14:54;;;;;;;34.10;25.77;;;;;;;;;;5051469;28;20271;-75
2021/03/03 07:17:39;;;;;;;33.83;24.93;;;;;;;;;;5051218;28;20213;-75
2021/03/03 07:20:24;;;;;;;37.20;26.20;;;;;;;;;;5051068;28;20763;-76
2021/03/03 07:23:08;;;;;;;34.07;25.90;;;;;;;;;;5058220;28;20244;-77
2021/03/03 07:25:54;;;;;;;40.50;27.00;;;;;;;;;;5049664;28;20336;-75
2021/03/03 07:28:39;;;;;;;32.87;25.77;;;;;;;;;;5052028;28;20245;-75
2021/03/03 07:31:23;;;;;;;34.27;26.03;;;;;;;;;;5050440;28;20256;-75
2021/03/03 07:34:08;;;;;;;37.20;26.17;;;;;;;;;;5052133;28;20205;-74
2021/03/03 07:36:54;;;;;;;37.43;28.17;;;;;;;;;;5050860;28;20288;-74
2021/03/03 07:39:39;;;;;;;35.83;29.43;;;;;;;;;;5050956;28;20576;-74
2021/03/03 07:42:25;;;;;;;37.77;27.83;;;;;;;;;;5056883;28;20215;-76
2021/03/03 07:45:11;;;;;;;35.73;29.07;;;;;;;;;;5071090;28;20206;-74
2021/03/03 07:47:56;;;;;;;39.67;31.45;;;;;;;;;;5061100;28;20513;-73
2021/03/03 07:50:41;;;;;;;37.47;31.07;;;;;;;;;;5050773;28;20689;-74
2021/03/03 07:53:26;;;;;;;39.70;30.43;;;;;;;;;;5063963;28;20232;-74
2021/03/03 07:56:11;;;;;;;38.93;32.40;;;;;;;;;;5062510;28;20287;-75
2021/03/03 07:58:57;;;;;;;38.50;30.33;;;;;;;;;;5050457;28;20214;-75
2021/03/03 08:01:41;;;;;;;38.97;30.27;;;;;;;;;;5050659;28;20287;-74
2021/03/03 08:04:40;;;;;;;38.87;29.73;;;;;;;;;;5050624;28;20205;-73
2021/03/03 08:07:25;;;;;;;37.10;30.60;;;;;;;;;;5054000;28;20205;-74
2021/03/03 08:10:27;;;;;;;40.20;30.97;;;;;;;;;;5070520;28;20318;-80
2021/03/03 08:13:12;;;;;;;35.40;30.47;;;;;;;;;;5059181;28;20301;-77
2021/03/03 08:15:58;;;;;;;40.47;30.57;;;;;;;;;;5049908;28;20250;-76
2021/03/03 08:18:51;;;;;;;42.72;35.42;;;;;;;;;;5050177;28;20951;-75
2021/03/03 08:21:46;;;;;;;39.17;32.47;;;;;;;;;;5050496;28;20245;-77
2021/03/03 08:24:37;;;;;;;42.10;32.27;;;;;;;;;;5050579;28;20797;-75
2021/03/03 08:27:37;;;;;;;40.50;32.13;;;;;;;;;;5054037;28;20295;-75
2021/03/03 08:30:22;;;;;;;40.10;32.50;;;;;;;;;;5062236;28;20612;-76
2021/03/03 08:33:21;;;;;;;42.65;38.15;;;;;;;;;;5058140;28;20922;-76
2021/03/03 08:36:08;;;;;;;69.97;38.43;;;;;;;;;;5069400;28;20238;-76
2021/03/03 08:39:14;;;;;;;54.77;39.00;;;;;;;;;;5054233;28;20878;-74
2021/03/03 08:42:01;;;;;;;53.70;38.63;;;;;;;;;;5054546;28;20282;-74
2021/03/03 08:44:58;;;;;;;45.53;38.57;;;;;;;;;;5053891;28;20270;-74
2021/03/03 08:47:43;;;;;;;49.37;39.97;;;;;;;;;;5053423;28;20205;-75
2021/03/03 08:50:32;;;;;;;51.37;42.23;;;;;;;;;;5053388;28;20666;-74
2021/03/03 08:53:29;;;;;;;51.27;42.83;;;;;;;;;;5065502;28;20239;-75
2021/03/03 08:56:34;;;;;;;54.07;44.33;;;;;;;;;;5073240;28;20207;-73
2021/03/03 08:59:39;;;;;;;58.40;44.93;;;;;;;;;;5053595;28;20224;-73
2021/03/03 09:02:26;;;;;;;55.83;44.10;;;;;;;;;;5069548;28;20232;-74
2021/03/03 09:05:12;;;;;;;53.27;43.57;;;;;;;;;;5053758;28;20675;-73
2021/03/03 09:07:56;;;;;;;51.00;44.47;;;;;;;;;;5061861;28;20255;-74
2021/03/03 09:10:41;;;;;;;58.23;44.77;;;;;;;;;;5073731;28;20223;-73
2021/03/03 09:13:26;;;;;;;54.30;44.27;;;;;;;;;;5058656;28;20229;-74
2021/03/03 09:16:12;;;;;;;54.17;44.63;;;;;;;;;;5053141;28;20201;-73
2021/03/03 09:19:03;;;;;;;60.75;54.38;;;;;;;;;;5068850;28;20419;-72
2021/03/03 09:21:47;;;;;;;60.00;50.87;;;;;;;;;;5062304;28;20267;-72
2021/03/03 09:24:32;;;;;;;55.50;49.63;;;;;;;;;;5073482;28;20307;-72
2021/03/03 09:27:16;;;;;;;57.30;51.00;;;;;;;;;;5052961;28;20201;-73
2021/03/03 09:30:01;;;;;;;57.20;51.07;;;;;;;;;;5053243;28;20316;-73
2021/03/03 09:32:47;;;;;;;58.03;51.83;;;;;;;;;;5052861;28;20294;-73
2021/03/03 09:35:32;;;;;;;65.30;49.97;;;;;;;;;;5052932;28;20289;-72
2021/03/03 09:38:16;;;;;;;55.00;48.13;;;;;;;;;;5052668;28;20668;-73
2021/03/03 09:41:09;;;;;;;57.87;48.33;;;;;;;;;;5052663;28;20369;-71
2021/03/03 09:44:03;;;;;;;53.73;45.27;;;;;;;;;;5054700;28;20630;-72
2021/03/03 09:46:59;;;;;;;53.50;45.43;;;;;;;;;;5063645;28;20699;-71
2021/03/03 09:49:44;;;;;;;53.97;48.38;;;;;;;;;;5068606;28;20423;-71
2021/03/03 09:52:33;;;;;;;46.77;40.83;;;;;;;;;;5052850;28;20263;-71
2021/03/03 09:55:19;;;;;;;52.00;42.40;;;;;;;;;;5052607;28;20197;-71
2021/03/03 09:58:04;;;;;;;46.93;41.07;;;;;;;;;;5056638;28;20678;-71
2021/03/03 10:00:48;;;;;;;49.37;40.03;;;;;;;;;;5062722;28;20264;-72
2021/03/03 10:03:33;;;;;;;52.38;46.72;;;;;;;;;;5051278;28;20760;-72
2021/03/03 10:06:19;;;;;;;46.07;41.33;;;;;;;;;;5055359;28;20680;-72
2021/03/03 10:09:03;;;;;;;50.33;44.70;;;;;;;;;;5052654;28;20206;-73
2021/03/03 10:11:48;;;;;;;49.37;43.03;;;;;;;;;;5061677;28;20697;-73
2021/03/03 10:14:32;;;;;;;54.37;44.07;;;;;;;;;;5073485;28;20243;-72
2021/03/03 10:17:26;;;;;;;51.60;45.67;;;;;;;;;;5079635;28;20363;-74
2021/03/03 10:20:26;;;;;;;54.23;48.13;;;;;;;;;;5052268;28;20922;-73
2021/03/03 10:23:12;;;;;;;57.33;50.27;;;;;;;;;;5052640;28;20583;-73
2021/03/03 10:26:00;;;;;;;56.03;49.97;;;;;;;;;;5051841;28;20234;-73
2021/03/03 10:28:50;;;;;;;49.90;44.73;;;;;;;;;;5052149;28;20205;-72
2021/03/03 10:31:35;;;;;;;49.40;43.80;;;;;;;;;;5051540;28;20320;-73
2021/03/03 10:34:19;;;;;;;51.03;45.47;;;;;;;;;;5054631;28;20256;-73
2021/03/03 10:37:04;;;;;;;53.23;47.37;;;;;;;;;;5051182;28;20746;-72
2021/03/03 10:39:50;;;;;;;49.77;44.50;;;;;;;;;;5058039;28;20287;-74
2021/03/03 10:42:34;;;;;;;48.40;43.27;;;;;;;;;;5051293;28;20230;-74
2021/03/03 10:45:20;;;;;;;51.47;45.10;;;;;;;;;;5066537;22;20304;-76
2021/03/03 10:48:04;;;;;;;53.30;48.03;;;;;;;;;;5066588;28;20419;-76
2021/03/03 10:50:50;;;;;;;68.37;50.00;;;;;;;;;;5051432;28;20569;-76
2021/03/03 10:53:44;;;;;;;53.40;47.77;;;;;;;;;;5031515;28;20258;-76
2021/03/03 10:56:30;;;;;;;57.63;51.33;;;;;;;;;;5031279;28;20852;-76
2021/03/03 10:59:25;;;;;;;55.90;49.80;;;;;;;;;;5031153;28;20223;-76
2021/03/03 11:02:11;;;;;;;57.30;50.50;;;;;;;;;;5031256;28;20286;-76
2021/03/03 11:04:55;;;;;;;57.77;51.63;;;;;;;;;;5031595;28;20279;-76
2021/03/03 11:07:40;;;;;;;57.63;51.63;;;;;;;;;;5038567;28;20204;-76
2021/03/03 11:10:24;;;;;;;60.27;53.83;;;;;;;;;;5050558;28;20336;-77
2021/03/03 11:13:10;;;;;;;61.20;54.97;;;;;;;;;;5043699;28;20252;-76
2021/03/03 11:15:54;;;;;;;58.17;52.17;;;;;;;;;;5030607;28;20219;-76
2021/03/03 11:18:39;;;;;;;62.73;56.33;;;;;;;;;;5050235;28;20248;-76
2021/03/03 11:21:23;;;;;;;62.67;56.47;;;;;;;;;;5051116;28;20423;-76
2021/03/03 11:24:08;;;;;;;62.87;56.27;;;;;;;;;;5037614;28;20728;-76
2021/03/03 11:26:52;;;;;;;63.60;56.83;;;;;;;;;;5042951;28;20223;-76
2021/03/03 11:29:38;;;;;;;62.27;55.57;;;;;;;;;;5038184;28;20207;-72
2021/03/03 11:32:22;;;;;;;65.55;58.72;;;;;;;;;;5047605;28;20548;-76
2021/03/03 11:35:07;;;;;;;61.60;55.33;;;;;;;;;;5050653;28;20672;-76
2021/03/03 11:37:51;;;;;;;61.60;55.17;;;;;;;;;;5050311;28;20244;-77
2021/03/03 11:40:36;;;;;;;62.97;56.23;;;;;;;;;;5050296;28;20232;-78
2021/03/03 11:43:20;;;;;;;64.20;57.47;;;;;;;;;;5050815;28;20619;-78
2021/03/03 11:46:06;;;;;;;63.50;56.83;;;;;;;;;;5049240;28;20244;-76
2021/03/03 11:48:50;;;;;;;62.87;56.27;;;;;;;;;;5050366;28;20221;-78
2021/03/03 11:51:34;;;;;;;62.77;55.40;;;;;;;;;;5048917;28;20224;-80
2021/03/03 11:54:19;;;;;;;59.27;52.87;;;;;;;;;;5050428;28;20208;-73
2021/03/03 11:57:04;;;;;;;60.07;53.77;;;;;;;;;;5050221;28;20288;-73
2021/03/03 11:59:49;;;;;;;60.00;53.23;;;;;;;;;;5050263;28;20292;-74
2021/03/03 12:02:34;;;;;;;57.93;51.87;;;;;;;;;;5046437;28;20223;-72
2021/03/03 12:05:19;;;;;;;62.35;56.20;;;;;;;;;;5038698;28;20472;-73
2021/03/03 12:08:06;;;;;;;58.30;52.00;;;;;;;;;;5030326;28;20217;-75
2021/03/03 12:10:50;;;;;;;59.97;53.47;;;;;;;;;;5030681;28;20228;-74
2021/03/03 12:13:35;;;;;;;60.77;54.37;;;;;;;;;;5034478;28;20205;-73
2021/03/03 12:16:19;;;;;;;59.63;53.30;;;;;;;;;;5034141;28;20248;-74
2021/03/03 12:19:05;;;;;;;64.37;58.07;;;;;;;;;;5034049;28;20418;-72
2021/03/03 12:21:49;;;;;;;60.37;53.77;;;;;;;;;;5047781;28;20593;-73
2021/03/03 12:24:34;;;;;;;64.20;53.50;;;;;;;;;;5053049;28;20251;-81
2021/03/03 12:27:18;;;;;;;61.90;55.33;;;;;;;;;;5053519;28;20208;-80
2021/03/03 12:30:03;;;;;;;62.03;55.20;;;;;;;;;;5041586;28;20263;-77
2021/03/03 12:32:47;;;;;;;62.33;55.37;;;;;;;;;;5049816;28;20625;-75
2021/03/03 12:35:32;;;;;;;60.70;54.60;;;;;;;;;;5052823;28;20207;-75
2021/03/03 12:38:17;;;;;;;63.23;56.43;;;;;;;;;;5054124;28;20516;-74
2021/03/03 12:41:02;;;;;;;70.10;60.97;;;;;;;;;;5053858;28;20251;-74
2021/03/03 12:43:47;;;;;;;64.40;57.57;;;;;;;;;;5054187;28;20296;-75
2021/03/03 12:46:31;;;;;;;64.90;58.10;;;;;;;;;;5053448;28;20231;-74
2021/03/03 12:49:16;;;;;;;65.93;58.20;;;;;;;;;;5054091;28;20259;-75
2021/03/03 12:52:01;;;;;;;66.00;59.00;;;;;;;;;;5053958;28;20631;-74
2021/03/03 12:54:45;;;;;;;67.57;60.13;;;;;;;;;;5053909;28;20320;-74
2021/03/03 12:57:30;;;;;;;66.82;60.25;;;;;;;;;;5052097;28;20445;-75
2021/03/03 13:00:15;;;;;;;65.23;58.17;;;;;;;;;;5053725;28;20223;-74
2021/03/03 13:02:59;;;;;;;67.83;60.43;;;;;;;;;;5053574;28;20595;-74
2021/03/03 13:05:44;;;;;;;65.93;58.90;;;;;;;;;;5053848;28;20196;-74
2021/03/03 13:08:31;;;;;;;67.70;60.47;;;;;;;;;;5053694;28;20285;-75
2021/03/03 13:11:15;;;;;;;67.47;60.30;;;;;;;;;;5053487;28;20228;-74
2021/03/03 13:13:59;;;;;;;68.00;60.63;;;;;;;;;;5053646;28;20658;-74
2021/03/03 13:16:44;;;;;;;69.03;60.53;;;;;;;;;;5052962;28;20199;-74
2021/03/03 13:19:28;;;;;;;66.97;59.73;;;;;;;;;;5053277;28;20279;-75
2021/03/03 13:22:13;;;;;;;65.93;58.93;;;;;;;;;;5053388;28;20292;-75
2021/03/03 13:24:58;;;;;;;71.13;60.93;;;;;;;;;;5053308;28;20207;-74
2021/03/03 13:27:43;;;;;;;68.73;61.60;;;;;;;;;;5052910;28;20700;-74
2021/03/03 13:30:27;;;;;;;71.07;62.30;;;;;;;;;;5053282;28;20220;-74
2021/03/03 13:33:12;;;;;;;67.80;59.63;;;;;;;;;;5053327;28;20251;-74
2021/03/03 13:35:56;;;;;;;68.97;61.40;;;;;;;;;;5052635;28;20622;-74
2021/03/03 13:38:41;;;;;;;71.70;64.05;;;;;;;;;;5052713;28;20823;-75
2021/03/03 13:41:26;;;;;;;69.33;61.67;;;;;;;;;;5052875;28;20694;-74
2021/03/03 13:44:11;;;;;;;68.70;61.40;;;;;;;;;;5053181;28;20343;-74
2021/03/03 13:46:55;;;;;;;68.03;58.70;;;;;;;;;;5052089;28;20292;-74
2021/03/03 13:49:40;;;;;;;68.43;61.10;;;;;;;;;;5053008;28;20247;-74
2021/03/03 13:52:24;;;;;;;69.27;60.53;;;;;;;;;;5052919;28;20243;-74
2021/03/03 13:55:10;;;;;;;69.00;61.27;;;;;;;;;;5052965;28;20200;-74
2021/03/03 13:57:55;;;;;;;68.87;60.57;;;;;;;;;;5052400;28;20259;-74
2021/03/03 14:00:41;;;;;;;68.70;61.23;;;;;;;;;;5052479;28;20317;-74
2021/03/03 14:03:25;;;;;;;69.77;59.20;;;;;;;;;;5052640;28;20766;-74
2021/03/03 14:06:10;;;;;;;66.70;59.77;;;;;;;;;;5052124;28;20291;-74
2021/03/03 14:08:54;;;;;;;70.28;62.53;;;;;;;;;;5052653;28;20421;-74
2021/03/03 14:11:39;;;;;;;70.67;62.97;;;;;;;;;;5052297;28;20239;-73
2021/03/03 14:14:24;;;;;;;70.30;62.87;;;;;;;;;;5052471;28;20343;-74
2021/03/03 14:17:09;;;;;;;72.37;64.20;;;;;;;;;;5052102;28;20200;-74
2021/03/03 14:19:53;;;;;;;72.40;64.53;;;;;;;;;;5052260;28;20267;-74
2021/03/03 14:22:38;;;;;;;73.03;64.03;;;;;;;;;;5052156;28;20317;-74
2021/03/03 14:25:22;;;;;;;80.18;72.13;;;;;;;;;;5050609;28;20461;-74
2021/03/03 14:28:07;;;;;;;75.13;67.40;;;;;;;;;;5051616;28;20673;-74
2021/03/03 14:30:52;;;;;;;71.83;64.17;;;;;;;;;;5052078;28;20228;-74
2021/03/03 14:33:37;;;;;;;73.60;65.60;;;;;;;;;;5052216;28;20561;-74
2021/03/03 14:36:21;;;;;;;73.20;65.47;;;;;;;;;;5051040;28;20200;-74
2021/03/03 14:39:06;;;;;;;75.43;65.00;;;;;;;;;;5052107;28;20555;-74
2021/03/03 14:41:50;;;;;;;73.53;64.27;;;;;;;;;;5051874;28;20278;-74
2021/03/03 14:44:34;;;;;;;73.33;65.27;;;;;;;;;;5052051;28;20266;-74
2021/03/03 14:47:20;;;;;;;72.40;64.73;;;;;;;;;;5051403;28;20200;-74
2021/03/03 14:50:05;;;;;;;75.33;67.07;;;;;;;;;;5051826;28;20208;-74
2021/03/03 14:52:50;;;;;;;82.37;70.17;;;;;;;;;;5051793;28;20224;-74
2021/03/03 14:55:35;;;;;;;81.00;73.00;;;;;;;;;;5050528;28;20405;-73
2021/03/03 14:58:19;;;;;;;72.60;64.70;;;;;;;;;;5051935;28;20732;-74
2021/03/03 15:01:04;;;;;;;70.93;63.53;;;;;;;;;;5051689;28;20252;-74
2021/03/03 15:03:49;;;;;;;72.17;64.23;;;;;;;;;;5051714;28;20718;-74
2021/03/03 15:06:33;;;;;;;73.17;65.30;;;;;;;;;;5051196;28;20215;-74
2021/03/03 15:09:18;;;;;;;80.55;72.32;;;;;;;;;;5050769;28;20500;-74
2021/03/03 15:12:03;;;;;;;74.43;66.27;;;;;;;;;;5051415;28;20275;-73
2021/03/03 15:14:47;;;;;;;76.47;67.77;;;;;;;;;;5051506;28;20204;-74
2021/03/03 15:17:32;;;;;;;76.70;68.57;;;;;;;;;;5050883;28;20323;-74
2021/03/03 15:20:17;;;;;;;76.13;67.97;;;;;;;;;;5051245;28;20711;-74
2021/03/03 15:23:02;;;;;;;73.17;65.30;;;;;;;;;;5051494;28;20200;-74
2021/03/03 15:25:46;;;;;;;79.47;66.03;;;;;;;;;;5051201;28;20259;-74
2021/03/03 15:28:31;;;;;;;75.83;65.83;;;;;;;;;;5051311;28;20565;-74
2021/03/03 15:31:15;;;;;;;72.73;64.77;;;;;;;;;;5051417;28;20311;-74
2021/03/03 15:34:00;;;;;;;75.80;67.27;;;;;;;;;;5051143;28;20239;-74
2021/03/03 15:36:45;;;;;;;78.27;69.60;;;;;;;;;;5050633;28;20208;-74
2021/03/03 15:39:29;;;;;;;78.83;70.30;;;;;;;;;;5050962;28;20274;-73
2021/03/03 15:42:14;;;;;;;77.50;69.17;;;;;;;;;;5050981;28;20270;-74
2021/03/03 15:44:59;;;;;;;78.70;68.87;;;;;;;;;;5050972;28;20235;-73
2021/03/03 15:47:44;;;;;;;77.23;67.63;;;;;;;;;;5049429;28;20243;-74
2021/03/03 15:50:28;;;;;;;75.97;67.63;;;;;;;;;;5051016;28;20205;-74
2021/03/03 15:53:13;;;;;;;83.17;74.73;;;;;;;;;;5049765;28;20839;-74
2021/03/03 15:55:58;;;;;;;80.07;71.27;;;;;;;;;;5050645;28;20200;-74
2021/03/03 15:58:43;;;;;;;78.50;70.13;;;;;;;;;;5051259;28;20341;-74
2021/03/03 16:01:27;;;;;;;80.17;71.53;;;;;;;;;;5050672;28;20365;-74
2021/03/03 16:04:11;;;;;;;82.40;73.57;;;;;;;;;;5050865;28;20250;-73